Time;durP1;ratioP1;P1;durP2;ratioP2;P2;SDS_P1;SDS_P2;PMS_P1;PMS_P2;Temp;Humidity;BMP_temperature;BMP_pressure;BME280_temperature;BME280_humidity;BME280_pressure;Samples;Min_cycle;Max_cycle;Signal;HPM_P1;HPM_P2
2022/08/02 00:00:09;;;;;;;70.55;66.88;;;;;;;;;;5043323;28;20572;-67
2022/08/02 00:02:35;;;;;;;64.97;61.72;;;;;;;;;;5041058;28;20044;-67
2022/08/02 00:05:00;;;;;;;74.93;71.20;;;;;;;;;;5042464;28;20450;-67
2022/08/02 00:07:26;;;;;;;72.03;68.47;;;;;;;;;;5042670;28;20115;-67
2022/08/02 00:09:51;;;;;;;77.68;73.80;;;;;;;;;;5043595;28;20378;-67
2022/08/02 00:12:16;;;;;;;79.65;75.72;;;;;;;;;;5037850;28;20029;-67
2022/08/02 00:14:42;;;;;;;83.72;79.55;;;;;;;;;;5042960;28;20041;-67
2022/08/02 00:17:07;;;;;;;87.32;83.03;;;;;;;;;;5045849;28;20043;-67
2022/08/02 00:19:33;;;;;;;88.88;84.47;;;;;;;;;;5039128;28;20033;-67
2022/08/02 00:21:58;;;;;;;89.35;84.95;;;;;;;;;;5042412;28;20021;-67
2022/08/02 00:24:23;;;;;;;75.18;71.43;;;;;;;;;;5041493;28;20047;-67
2022/08/02 00:26:49;;;;;;;65.22;61.95;;;;;;;;;;5042602;28;20040;-67
2022/08/02 00:29:14;;;;;;;69.70;66.25;;;;;;;;;;5038555;28;20475;-67
2022/08/02 00:31:39;;;;;;;65.50;62.22;;;;;;;;;;5042140;28;20033;-67
2022/08/02 00:34:05;;;;;;;37.92;35.97;;;;;;;;;;5040089;28;20057;-67
2022/08/02 00:36:30;;;;;;;37.85;35.85;;;;;;;;;;5043312;28;20099;-67
2022/08/02 00:38:56;;;;;;;40.47;38.38;;;;;;;;;;5039209;28;20029;-67
2022/08/02 00:41:21;;;;;;;47.38;44.92;;;;;;;;;;5040713;28;20018;-66
2022/08/02 00:43:49;;;;;;;42.95;40.75;;;;;;;;;;5040789;28;20048;-67
2022/08/02 00:46:15;;;;;;;37.05;35.17;;;;;;;;;;5042099;28;20124;-67
2022/08/02 00:48:41;;;;;;;47.20;44.78;;;;;;;;;;5039100;28;20222;-67
2022/08/02 00:51:06;;;;;;;43.22;41.00;;;;;;;;;;5037399;28;20206;-67
2022/08/02 00:53:32;;;;;;;42.95;40.80;;;;;;;;;;5025622;28;20135;-67
2022/08/02 00:55:57;;;;;;;54.60;51.85;;;;;;;;;;5045108;28;20667;-67
2022/08/02 00:58:23;;;;;;;52.05;49.42;;;;;;;;;;5043422;28;20461;-67
2022/08/02 01:00:48;;;;;;;54.33;51.60;;;;;;;;;;5042097;28;20454;-68
2022/08/02 01:03:14;;;;;;;50.15;47.60;;;;;;;;;;5041638;28;20082;-68
2022/08/02 01:05:39;;;;;;;47.13;44.72;;;;;;;;;;5042795;28;20283;-67
2022/08/02 01:08:05;;;;;;;45.45;43.17;;;;;;;;;;5040623;28;20364;-68
2022/08/02 01:10:30;;;;;;;56.05;53.25;;;;;;;;;;5043190;28;20275;-68
2022/08/02 01:12:55;;;;;;;41.60;39.45;;;;;;;;;;5040803;28;20075;-67
2022/08/02 01:15:21;;;;;;;43.55;41.33;;;;;;;;;;5039211;28;20045;-68
2022/08/02 01:17:50;;;;;;;44.75;42.47;;;;;;;;;;5040227;28;20044;-68
2022/08/02 01:20:43;;;;;;;48.55;46.10;;;;;;;;;;5038635;28;20033;-68
2022/08/02 01:23:26;;;;;;;49.22;46.75;;;;;;;;;;5039787;28;20276;-67
2022/08/02 01:26:16;;;;;;;43.78;41.58;;;;;;;;;;5041908;28;20048;-67
2022/08/02 01:29:02;;;;;;;36.90;35.00;;;;;;;;;;5042034;28;20029;-68
2022/08/02 01:31:34;;;;;;;31.83;30.17;;;;;;;;;;5040673;28;20745;-68
2022/08/02 01:34:27;;;;;;;26.83;25.42;;;;;;;;;;5039149;28;20117;-67
2022/08/02 01:37:06;;;;;;;27.25;25.75;;;;;;;;;;5041631;28;20319;-67
2022/08/02 01:39:33;;;;;;;27.33;25.88;;;;;;;;;;5038707;28;20525;-68
2022/08/02 01:42:00;;;;;;;34.97;33.17;;;;;;;;;;5038228;28;20116;-68
2022/08/02 01:44:29;;;;;;;42.78;40.63;;;;;;;;;;5039770;28;20040;-67
2022/08/02 01:46:59;;;;;;;41.45;39.17;;;;;;;;;;5041654;28;20075;-68
2022/08/02 01:49:26;;;;;;;;;;;;;;;;;;5036652;28;20492;-67
2022/08/02 01:54:37;;;;;;;38.10;36.15;;;;;;;;;;5041030;28;20070;-68
2022/08/02 01:57:05;;;;;;;34.40;32.63;;;;;;;;;;5040325;28;20048;-68
2022/08/02 01:59:32;;;;;;;48.38;45.92;;;;;;;;;;5039311;28;20159;-68
2022/08/02 02:01:58;;;;;;;46.92;44.53;;;;;;;;;;5037551;28;20029;-68
2022/08/02 02:04:26;;;;;;;46.78;44.42;;;;;;;;;;5038008;28;20466;-68
2022/08/02 02:06:53;;;;;;;47.88;45.45;;;;;;;;;;5038238;28;20244;-68
2022/08/02 02:09:19;;;;;;;47.25;44.88;;;;;;;;;;5038147;28;20033;-68
2022/08/02 02:11:47;;;;;;;49.65;47.13;;;;;;;;;;5036798;28;20460;-68
2022/08/02 02:14:15;;;;;;;49.55;47.05;;;;;;;;;;5039568;28;20072;-68
2022/08/02 02:16:43;;;;;;;46.60;44.25;;;;;;;;;;5034783;28;20107;-68
2022/08/02 02:19:11;;;;;;;39.85;37.83;;;;;;;;;;5039881;28;20032;-67
2022/08/02 02:21:36;;;;;;;47.53;45.15;;;;;;;;;;5041152;28;20037;-68
2022/08/02 02:24:03;;;;;;;39.15;37.15;;;;;;;;;;5034917;28;20043;-68
2022/08/02 02:26:30;;;;;;;40.20;38.15;;;;;;;;;;5037615;28;20058;-68
2022/08/02 02:29:00;;;;;;;41.78;39.65;;;;;;;;;;5042654;28;20334;-68
2022/08/02 02:31:28;;;;;;;43.08;40.88;;;;;;;;;;5043055;28;20029;-68
2022/08/02 02:34:00;;;;;;;49.55;47.08;;;;;;;;;;5039825;28;20060;-68
2022/08/02 02:36:28;;;;;;;49.05;46.55;;;;;;;;;;5045953;28;20032;-68
2022/08/02 02:38:58;;;;;;;46.08;43.72;;;;;;;;;;5042296;28;20115;-68
2022/08/02 02:41:25;;;;;;;48.50;46.05;;;;;;;;;;5043433;28;20038;-68
2022/08/02 02:43:53;;;;;;;46.58;44.13;;;;;;;;;;5044477;28;20135;-68
2022/08/02 02:46:20;;;;;;;43.17;40.97;;;;;;;;;;5047802;28;20024;-68
2022/08/02 02:48:46;;;;;;;47.85;45.42;;;;;;;;;;5049432;28;20033;-68
2022/08/02 02:51:13;;;;;;;53.22;50.50;;;;;;;;;;5049157;28;20029;-68
2022/08/02 02:53:41;;;;;;;47.85;45.42;;;;;;;;;;5043886;28;20063;-68
2022/08/02 02:56:07;;;;;;;55.55;52.78;;;;;;;;;;5049701;28;20041;-68
2022/08/02 02:58:32;;;;;;;49.95;46.75;;;;;;;;;;5042593;28;20072;-68
2022/08/02 03:03:43;;;;;;;38.78;36.78;;;;;;;;;;5045499;28;20362;-68
2022/08/02 03:06:09;;;;;;;42.58;40.42;;;;;;;;;;5047022;28;20638;-67
2022/08/02 03:08:34;;;;;;;48.60;46.15;;;;;;;;;;5045362;28;20230;-68
2022/08/02 03:11:00;;;;;;;45.45;43.15;;;;;;;;;;5047442;28;20437;-68
2022/08/02 03:13:25;;;;;;;48.28;45.85;;;;;;;;;;5044642;28;20029;-68
2022/08/02 03:15:52;;;;;;;48.67;46.22;;;;;;;;;;5049384;28;20149;-68
2022/08/02 03:18:34;;;;;;;50.33;47.78;;;;;;;;;;5044154;28;20033;-68
2022/08/02 03:21:01;;;;;;;46.20;43.72;;;;;;;;;;5046764;28;20029;-68
2022/08/02 03:23:27;;;;;;;52.28;49.63;;;;;;;;;;5047537;28;20039;-68
2022/08/02 03:25:52;;;;;;;50.97;48.38;;;;;;;;;;5043467;28;20508;-68
2022/08/02 03:28:18;;;;;;;39.65;37.65;;;;;;;;;;5041310;28;20106;-68
2022/08/02 03:30:43;;;;;;;38.72;36.75;;;;;;;;;;5047025;28;20536;-68
2022/08/02 03:33:09;;;;;;;29.05;27.55;;;;;;;;;;5041331;28;20053;-68
2022/08/02 03:35:35;;;;;;;35.95;34.10;;;;;;;;;;5040824;28;20426;-68
2022/08/02 03:38:03;;;;;;;46.03;43.72;;;;;;;;;;5045629;28;20024;-68
2022/08/02 03:40:30;;;;;;;44.22;41.97;;;;;;;;;;5049006;28;20042;-68
2022/08/02 03:42:56;;;;;;;35.30;33.50;;;;;;;;;;5043041;28;20108;-68
2022/08/02 03:45:22;;;;;;;45.00;42.60;;;;;;;;;;5043313;28;20033;-68
2022/08/02 03:47:48;;;;;;;46.50;44.08;;;;;;;;;;5040032;28;20430;-68
2022/08/02 03:50:14;;;;;;;51.83;49.17;;;;;;;;;;5047036;28;20029;-68
2022/08/02 03:52:42;;;;;;;45.72;43.42;;;;;;;;;;5041194;28;20042;-68
2022/08/02 03:55:10;;;;;;;37.20;35.30;;;;;;;;;;5040770;28;20550;-68
2022/08/02 03:57:38;;;;;;;18.77;17.75;;;;;;;;;;5039964;28;20068;-68
2022/08/02 04:00:05;;;;;;;21.58;20.38;;;;;;;;;;5044831;28;20025;-67
2022/08/02 04:02:30;;;;;;;35.53;33.53;;;;;;;;;;5038582;28;20106;-67
2022/08/02 04:04:55;;;;;;;43.03;40.83;;;;;;;;;;5038513;28;20041;-68
2022/08/02 04:07:21;;;;;;;59.05;56.05;;;;;;;;;;5042564;28;20024;-68
2022/08/02 04:09:46;;;;;;;75.63;71.85;;;;;;;;;;5038819;28;20060;-67
2022/08/02 04:12:11;;;;;;;46.38;43.97;;;;;;;;;;5042724;28;20038;-67
2022/08/02 04:14:37;;;;;;;41.20;39.05;;;;;;;;;;5043446;28;20056;-68
2022/08/02 04:17:07;;;;;;;53.25;50.58;;;;;;;;;;5043633;28;20069;-68
2022/08/02 04:19:44;;;;;;;41.13;39.03;;;;;;;;;;5042316;28;20044;-67
2022/08/02 04:22:17;;;;;;;27.05;25.58;;;;;;;;;;5049779;28;20053;-68
2022/08/02 04:24:47;;;;;;;24.98;23.58;;;;;;;;;;5044491;28;20052;-68
2022/08/02 04:27:14;;;;;;;25.95;24.55;;;;;;;;;;5039705;28;20530;-67
2022/08/02 04:29:41;;;;;;;40.67;38.58;;;;;;;;;;5044594;28;20080;-67
2022/08/02 04:32:07;;;;;;;29.52;28.02;;;;;;;;;;5043339;28;20091;-67
2022/08/02 04:34:32;;;;;;;33.13;31.42;;;;;;;;;;5037081;28;20049;-68
2022/08/02 04:36:58;;;;;;;21.02;19.92;;;;;;;;;;5038497;28;20522;-68
2022/08/02 04:39:24;;;;;;;20.10;19.00;;;;;;;;;;5042501;28;20589;-69
2022/08/02 04:41:49;;;;;;;23.40;22.10;;;;;;;;;;5046104;28;20036;-68
2022/08/02 04:44:15;;;;;;;25.10;23.77;;;;;;;;;;5042456;28;20527;-68
2022/08/02 04:46:42;;;;;;;23.88;22.58;;;;;;;;;;5046173;28;20036;-68
2022/08/02 04:49:08;;;;;;;21.23;20.10;;;;;;;;;;5045388;28;20040;-69
2022/08/02 04:51:37;;;;;;;26.75;25.35;;;;;;;;;;5043326;28;20037;-68
2022/08/02 04:54:03;;;;;;;24.85;23.55;;;;;;;;;;5044591;28;20116;-68
2022/08/02 04:56:29;;;;;;;22.33;21.13;;;;;;;;;;5043164;28;20390;-68
2022/08/02 04:58:54;;;;;;;21.50;20.33;;;;;;;;;;5044153;28;20111;-68
2022/08/02 05:01:19;;;;;;;23.55;22.30;;;;;;;;;;5044029;28;20044;-68
2022/08/02 05:03:44;;;;;;;27.65;26.23;;;;;;;;;;5041468;28;20033;-68
2022/08/02 05:06:10;;;;;;;20.75;19.65;;;;;;;;;;5038533;28;20041;-68
2022/08/02 05:08:35;;;;;;;18.20;17.20;;;;;;;;;;5038717;28;20061;-69
2022/08/02 05:11:00;;;;;;;20.48;19.33;;;;;;;;;;5039859;28;20252;-70
2022/08/02 05:13:26;;;;;;;23.05;21.85;;;;;;;;;;5041624;28;20107;-69
2022/08/02 05:15:51;;;;;;;15.75;14.85;;;;;;;;;;5041312;28;20172;-69
2022/08/02 05:18:17;;;;;;;20.80;19.70;;;;;;;;;;5039561;28;20323;-70
2022/08/02 05:20:43;;;;;;;17.77;16.77;;;;;;;;;;5041643;28;20044;-69
2022/08/02 05:23:08;;;;;;;19.83;18.75;;;;;;;;;;5038734;28;20025;-69
2022/08/02 05:25:33;;;;;;;22.15;20.95;;;;;;;;;;5039341;28;20041;-71
2022/08/02 05:27:59;;;;;;;23.25;22.05;;;;;;;;;;5039135;28;20043;-70
2022/08/02 05:30:24;;;;;;;20.83;19.52;;;;;;;;;;5042376;28;20028;-70
2022/08/02 05:32:52;;;;;;;23.05;21.85;;;;;;;;;;5040446;28;20025;-70
2022/08/02 05:35:23;;;;;;;25.10;23.77;;;;;;;;;;5038134;28;20517;-69
2022/08/02 05:37:49;;;;;;;31.08;29.45;;;;;;;;;;5034643;28;20047;-70
2022/08/02 05:40:15;;;;;;;34.47;32.70;;;;;;;;;;5040151;28;20041;-69
2022/08/02 05:42:41;;;;;;;30.60;29.00;;;;;;;;;;5042598;28;20694;-70
2022/08/02 05:45:07;;;;;;;21.63;20.42;;;;;;;;;;5040946;28;20041;-69
2022/08/02 05:47:33;;;;;;;25.83;24.45;;;;;;;;;;5037649;28;20123;-69
2022/08/02 05:49:58;;;;;;;29.60;28.05;;;;;;;;;;5037271;28;20179;-68
2022/08/02 05:52:25;;;;;;;25.80;24.40;;;;;;;;;;5040996;28;20404;-68
2022/08/02 05:55:17;;;;;;;22.42;21.23;;;;;;;;;;5040942;28;20030;-69
2022/08/02 05:58:04;;;;;;;26.88;25.48;;;;;;;;;;5034189;28;20049;-68
2022/08/02 06:00:31;;;;;;;17.75;16.75;;;;;;;;;;5039913;28;20043;-70
2022/08/02 06:03:17;;;;;;;20.15;19.05;;;;;;;;;;5038615;28;20029;-71
2022/08/02 06:05:59;;;;;;;21.00;19.83;;;;;;;;;;5040161;28;20033;-68
2022/08/02 06:08:31;;;;;;;21.05;19.90;;;;;;;;;;5038761;28;20587;-68
2022/08/02 06:11:00;;;;;;;25.42;24.05;;;;;;;;;;5043421;28;20065;-69
2022/08/02 06:13:26;;;;;;;20.50;19.38;;;;;;;;;;5041665;28;20037;-69
2022/08/02 06:15:52;;;;;;;24.45;23.15;;;;;;;;;;5048444;28;20044;-69
2022/08/02 06:18:18;;;;;;;24.98;23.65;;;;;;;;;;5049355;28;21792;-69
2022/08/02 06:20:49;;;;;;;17.17;16.13;;;;;;;;;;5041669;28;20036;-68
2022/08/02 06:23:16;;;;;;;;;;;;;;;;;;5045493;28;20021;-68
2022/08/02 06:25:41;;;;;;;21.02;19.88;;;;;;;;;;5043546;28;19909;-67
2022/08/02 06:28:07;;;;;;;24.88;23.55;;;;;;;;;;5044900;28;20033;-68
2022/08/02 06:30:32;;;;;;;24.90;23.40;;;;;;;;;;5048650;28;20036;-68
2022/08/02 06:32:58;;;;;;;30.10;28.48;;;;;;;;;;5048008;28;20028;-67
2022/08/02 06:36:07;;;;;;;32.03;30.35;;;;;;;;;;5040724;28;20113;-68
2022/08/02 06:38:41;;;;;;;28.90;27.40;;;;;;;;;;5044420;28;20112;-68
2022/08/02 06:41:13;;;;;;;22.88;21.67;;;;;;;;;;5041860;28;20514;-67
2022/08/02 06:43:44;;;;;;;24.90;23.58;;;;;;;;;;5042481;28;20045;-69
2022/08/02 06:46:10;;;;;;;26.75;25.35;;;;;;;;;;5038819;28;20089;-69
2022/08/02 06:48:35;;;;;;;18.90;17.80;;;;;;;;;;5046260;28;20036;-69
2022/08/02 06:51:02;;;;;;;21.17;19.35;;;;;;;;;;5045209;28;20040;-69
2022/08/02 06:53:28;;;;;;;38.45;36.47;;;;;;;;;;5041673;28;20114;-69
2022/08/02 06:55:54;;;;;;;29.52;28.02;;;;;;;;;;5044388;28;20063;-69
2022/08/02 06:58:19;;;;;;;43.30;41.13;;;;;;;;;;5046012;28;20478;-68
2022/08/02 07:00:44;;;;;;;55.28;52.25;;;;;;;;;;5042078;28;20532;-69
2022/08/02 07:03:10;;;;;;;33.67;31.92;;;;;;;;;;5041570;28;20484;-69
2022/08/02 07:05:36;;;;;;;21.23;20.02;;;;;;;;;;5045033;28;20029;-68
2022/08/02 07:08:02;;;;;;;15.43;14.52;;;;;;;;;;5046183;28;20091;-69
2022/08/02 07:10:27;;;;;;;16.63;15.73;;;;;;;;;;5044721;28;20032;-69
2022/08/02 07:12:52;;;;;;;36.90;35.00;;;;;;;;;;5041773;28;20094;-69
2022/08/02 07:15:18;;;;;;;23.00;21.80;;;;;;;;;;5041540;28;20135;-69
2022/08/02 07:17:43;;;;;;;24.08;22.80;;;;;;;;;;5043684;28;20040;-69
2022/08/02 07:20:09;;;;;;;28.00;26.50;;;;;;;;;;5041890;28;20148;-69
2022/08/02 07:22:34;;;;;;;38.05;36.13;;;;;;;;;;5042770;28;20414;-69
2022/08/02 07:25:00;;;;;;;26.25;24.85;;;;;;;;;;5045713;28;20060;-69
2022/08/02 07:27:26;;;;;;;27.27;25.88;;;;;;;;;;5045259;28;20028;-68
2022/08/02 07:29:52;;;;;;;27.02;25.45;;;;;;;;;;5042886;28;20040;-68
2022/08/02 07:32:22;;;;;;;29.08;27.55;;;;;;;;;;5043872;28;20103;-68
2022/08/02 07:34:48;;;;;;;27.42;25.98;;;;;;;;;;5041271;28;20064;-68
2022/08/02 07:37:14;;;;;;;26.70;25.30;;;;;;;;;;5041281;28;20053;-68
2022/08/02 07:39:39;;;;;;;24.80;23.50;;;;;;;;;;5045131;28;20044;-68
2022/08/02 07:42:04;;;;;;;24.90;23.60;;;;;;;;;;5043232;28;20040;-68
2022/08/02 07:44:33;;;;;;;22.13;20.92;;;;;;;;;;5043363;28;20033;-68
2022/08/02 07:47:00;;;;;;;29.95;28.38;;;;;;;;;;5039475;28;20033;-68
2022/08/02 07:49:26;;;;;;;25.33;24.02;;;;;;;;;;5042061;28;20775;-68
2022/08/02 07:51:51;;;;;;;23.52;22.27;;;;;;;;;;5041961;28;20044;-67
2022/08/02 07:54:17;;;;;;;25.05;23.75;;;;;;;;;;5043856;28;20033;-67
2022/08/02 07:56:42;;;;;;;30.17;28.48;;;;;;;;;;5042838;28;20086;-67
2022/08/02 07:59:09;;;;;;;25.85;24.45;;;;;;;;;;5039393;28;20135;-67
2022/08/02 08:01:35;;;;;;;28.08;26.60;;;;;;;;;;5041724;28;20029;-68
2022/08/02 08:04:00;;;;;;;22.67;21.48;;;;;;;;;;5040276;28;20025;-68
2022/08/02 08:06:25;;;;;;;22.98;21.73;;;;;;;;;;5043604;28;20025;-68
2022/08/02 08:08:51;;;;;;;24.63;23.33;;;;;;;;;;5040078;28;20098;-67
2022/08/02 08:11:16;;;;;;;25.38;24.00;;;;;;;;;;5043080;28;20087;-67
2022/08/02 08:13:41;;;;;;;18.95;17.95;;;;;;;;;;5042615;28;20040;-68
2022/08/02 08:16:06;;;;;;;16.90;15.90;;;;;;;;;;5047733;28;20079;-49
2022/08/02 08:18:32;;;;;;;19.52;18.42;;;;;;;;;;5042023;28;20128;-50
2022/08/02 08:20:57;;;;;;;17.52;16.52;;;;;;;;;;5043212;28;20025;-50
2022/08/02 08:23:23;;;;;;;19.50;18.40;;;;;;;;;;5041971;28;20435;-52
2022/08/02 08:25:49;;;;;;;19.10;18.05;;;;;;;;;;5042265;28;20089;-51
2022/08/02 08:28:14;;;;;;;19.50;18.40;;;;;;;;;;5044183;28;20065;-52
2022/08/02 08:30:41;;;;;;;19.80;18.70;;;;;;;;;;5040928;28;20089;-50
2022/08/02 08:33:06;;;;;;;20.38;19.27;;;;;;;;;;5046020;28;20071;-52
2022/08/02 08:35:32;;;;;;;23.35;22.10;;;;;;;;;;5045466;28;20073;-52
2022/08/02 08:37:57;;;;;;;22.10;20.90;;;;;;;;;;5044011;28;20451;-55
2022/08/02 08:40:24;;;;;;;30.05;28.45;;;;;;;;;;5045662;28;20246;-55
2022/08/02 08:42:49;;;;;;;31.70;30.02;;;;;;;;;;5044562;28;20025;-54
2022/08/02 08:45:16;;;;;;;26.83;25.42;;;;;;;;;;5043783;28;20052;-52
2022/08/02 08:47:42;;;;;;;42.97;40.78;;;;;;;;;;5040131;28;20048;-53
2022/08/02 08:50:11;;;;;;;50.05;47.53;;;;;;;;;;5045137;28;20029;-54
2022/08/02 08:52:56;;;;;;;56.40;53.53;;;;;;;;;;5057497;28;20025;-53
2022/08/02 08:55:25;;;;;;;58.15;55.22;;;;;;;;;;5041840;28;20021;-56
2022/08/02 08:57:53;;;;;;;71.00;67.47;;;;;;;;;;5042826;28;20064;-54
2022/08/02 09:00:18;;;;;;;87.97;83.65;;;;;;;;;;5042814;28;20029;-53
2022/08/02 09:02:45;;;;;;;116.80;111.10;;;;;;;;;;5040389;28;20059;-55
2022/08/02 09:05:13;;;;;;;86.47;82.25;;;;;;;;;;5041330;28;20072;-53
2022/08/02 09:07:40;;;;;;;98.18;93.35;;;;;;;;;;5044751;28;20587;-53
2022/08/02 09:10:35;;;;;;;103.97;98.88;;;;;;;;;;5043227;28;20071;-53
2022/08/02 09:13:22;;;;;;;94.13;89.53;;;;;;;;;;5042047;28;20039;-54
2022/08/02 09:15:56;;;;;;;102.28;97.28;;;;;;;;;;5045231;28;20036;-54
2022/08/02 09:18:38;;;;;;;127.40;121.18;;;;;;;;;;5045042;28;20052;-53
2022/08/02 09:21:08;;;;;;;105.45;100.28;;;;;;;;;;5045988;28;20033;-52
2022/08/02 09:23:39;;;;;;;118.22;112.43;;;;;;;;;;5038324;28;20059;-50
2022/08/02 09:26:08;;;;;;;92.88;88.32;;;;;;;;;;5040484;28;20056;-53
2022/08/02 09:28:36;;;;;;;121.47;115.55;;;;;;;;;;5043023;28;20056;-53
2022/08/02 09:31:08;;;;;;;97.03;92.28;;;;;;;;;;5041005;28;20059;-54
2022/08/02 09:33:34;;;;;;;116.35;110.68;;;;;;;;;;5040535;28;20029;-54
2022/08/02 09:36:05;;;;;;;94.00;89.40;;;;;;;;;;5045825;28;20025;-52
2022/08/02 09:38:31;;;;;;;91.97;87.45;;;;;;;;;;5045227;28;20677;-51
2022/08/02 09:40:57;;;;;;;114.35;108.75;;;;;;;;;;5039948;28;20589;-54
2022/08/02 09:43:40;;;;;;;106.93;101.70;;;;;;;;;;5039277;28;20028;-54
2022/08/02 09:46:16;;;;;;;124.60;118.50;;;;;;;;;;5043752;28;20055;-51
2022/08/02 09:48:52;;;;;;;90.10;85.68;;;;;;;;;;5044170;28;20040;-52
2022/08/02 09:51:31;;;;;;;86.25;82.00;;;;;;;;;;5045043;28;20037;-50
2022/08/02 09:54:00;;;;;;;94.25;89.63;;;;;;;;;;5044747;28;20044;-50
2022/08/02 09:56:27;;;;;;;88.85;84.35;;;;;;;;;;5043729;28;20029;-50
2022/08/02 09:58:55;;;;;;;88.22;83.88;;;;;;;;;;5046072;28;21358;-55
2022/08/02 10:01:30;;;;;;;93.57;88.97;;;;;;;;;;5047530;28;20025;-51
2022/08/02 10:03:58;;;;;;;91.05;86.57;;;;;;;;;;5047915;28;20037;-52
2022/08/02 10:06:25;;;;;;;93.75;89.15;;;;;;;;;;5044990;28;20424;-52
2022/08/02 10:08:52;;;;;;;96.93;92.13;;;;;;;;;;5043060;28;20063;-53
2022/08/02 10:11:18;;;;;;;105.97;100.80;;;;;;;;;;5049603;28;20040;-49
2022/08/02 10:13:43;;;;;;;80.93;76.93;;;;;;;;;;5041843;28;20028;-51
2022/08/02 10:16:09;;;;;;;91.95;87.43;;;;;;;;;;5045191;28;20478;-50
2022/08/02 10:18:34;;;;;;;87.35;83.05;;;;;;;;;;5048657;28;20044;-50
2022/08/02 10:21:01;;;;;;;90.07;85.65;;;;;;;;;;5045167;28;20021;-52
2022/08/02 10:23:32;;;;;;;91.05;86.55;;;;;;;;;;5045998;28;20040;-53
2022/08/02 10:25:58;;;;;;;112.03;106.50;;;;;;;;;;5045179;28;20029;-54
2022/08/02 10:28:30;;;;;;;91.35;86.88;;;;;;;;;;5044134;28;20025;-53
2022/08/02 10:30:58;;;;;;;80.70;76.72;;;;;;;;;;5041083;28;20200;-50
2022/08/02 10:33:25;;;;;;;78.57;74.70;;;;;;;;;;5045147;28;20036;-51
2022/08/02 10:35:53;;;;;;;71.60;68.05;;;;;;;;;;5044485;28;20116;-52
2022/08/02 10:38:19;;;;;;;80.43;76.43;;;;;;;;;;5046301;28;20112;-53
2022/08/02 10:40:54;;;;;;;77.90;74.07;;;;;;;;;;5047010;28;20021;-55
2022/08/02 10:43:35;;;;;;;82.78;78.68;;;;;;;;;;5043511;28;20036;-54
2022/08/02 10:46:33;;;;;;;109.50;104.15;;;;;;;;;;5045707;28;20122;-51
2022/08/02 10:49:11;;;;;;;99.53;94.65;;;;;;;;;;5043526;28;20584;-54
2022/08/02 10:51:52;;;;;;;93.75;89.15;;;;;;;;;;5041761;28;20049;-54
2022/08/02 10:54:19;;;;;;;90.28;85.88;;;;;;;;;;5046346;28;20048;-52
2022/08/02 10:56:46;;;;;;;93.78;89.03;;;;;;;;;;5046458;28;20025;-52
2022/08/02 10:59:27;;;;;;;97.65;92.85;;;;;;;;;;5040845;28;20021;-55
2022/08/02 11:02:03;;;;;;;77.05;73.25;;;;;;;;;;5046842;28;20037;-54
2022/08/02 11:04:38;;;;;;;67.72;64.32;;;;;;;;;;5045279;28;20034;-54
2022/08/02 11:07:06;;;;;;;70.93;67.25;;;;;;;;;;5045080;28;20041;-54
2022/08/02 11:09:31;;;;;;;75.25;71.50;;;;;;;;;;5045811;28;20621;-54
2022/08/02 11:12:08;;;;;;;74.95;71.22;;;;;;;;;;5047483;28;20048;-59
2022/08/02 11:14:36;;;;;;;79.80;75.85;;;;;;;;;;5043621;28;20040;-59
2022/08/02 11:17:04;;;;;;;99.90;95.00;;;;;;;;;;5049838;28;20039;-58
2022/08/02 11:19:30;;;;;;;84.07;79.93;;;;;;;;;;5053607;28;20459;-59
2022/08/02 11:22:10;;;;;;;96.80;92.03;;;;;;;;;;5044644;28;20021;-59
2022/08/02 11:24:39;;;;;;;97.63;92.82;;;;;;;;;;5042470;28;20068;-58
2022/08/02 11:27:07;;;;;;;69.35;65.85;;;;;;;;;;5043604;28;20363;-58
2022/08/02 11:29:41;;;;;;;77.13;73.32;;;;;;;;;;5044887;28;20099;-58
2022/08/02 11:32:13;;;;;;;72.82;69.22;;;;;;;;;;5044216;28;20033;-60
2022/08/02 11:34:41;;;;;;;82.85;78.78;;;;;;;;;;5044455;28;20033;-59
2022/08/02 11:37:06;;;;;;;78.88;74.97;;;;;;;;;;5047350;28;20047;-58
2022/08/02 11:39:32;;;;;;;72.68;69.07;;;;;;;;;;5048153;28;20127;-59
2022/08/02 11:41:59;;;;;;;74.72;71.03;;;;;;;;;;5041726;28;20028;-59
2022/08/02 11:44:26;;;;;;;72.93;69.30;;;;;;;;;;5043029;28;20086;-58
2022/08/02 11:46:55;;;;;;;76.80;73.00;;;;;;;;;;5047487;28;20120;-58
2022/08/02 11:49:21;;;;;;;80.80;76.80;;;;;;;;;;5043911;28;20029;-59
2022/08/02 11:52:04;;;;;;;83.95;79.78;;;;;;;;;;5051889;28;20429;-59
2022/08/02 11:54:33;;;;;;;80.00;76.05;;;;;;;;;;5052580;28;20017;-58
2022/08/02 11:57:28;;;;;;;76.88;73.05;;;;;;;;;;5049935;28;20025;-59
2022/08/02 11:59:55;;;;;;;86.57;82.30;;;;;;;;;;5039820;28;20507;-59
2022/08/02 12:02:24;;;;;;;77.78;73.93;;;;;;;;;;5048013;28;20021;-59
2022/08/02 12:04:53;;;;;;;77.07;73.28;;;;;;;;;;5046142;28;20530;-59
2022/08/02 12:07:24;;;;;;;;;;;;;;;;;;5042739;28;20041;-59
2022/08/02 12:09:49;;;;;;;82.68;78.57;;;;;;;;;;5045258;28;20373;-58
2022/08/02 12:12:15;;;;;;;80.65;76.68;;;;;;;;;;5048130;28;20033;-58
2022/08/02 12:14:42;;;;;;;83.70;79.50;;;;;;;;;;5039517;28;20040;-58
2022/08/02 12:19:52;;;;;;;89.65;85.25;;;;;;;;;;5043615;28;20065;-60
2022/08/02 12:22:23;;;;;;;84.50;80.30;;;;;;;;;;5043128;28;20044;-58
2022/08/02 12:24:57;;;;;;;82.03;77.95;;;;;;;;;;5045676;28;20099;-59
2022/08/02 12:27:30;;;;;;;85.93;81.68;;;;;;;;;;5043853;28;20501;-59
2022/08/02 12:30:19;;;;;;;96.75;91.97;;;;;;;;;;5048092;28;20029;-59
2022/08/02 12:32:45;;;;;;;;;;;;;;;;;;5042903;28;20049;-58
2022/08/02 12:35:13;;;;;;;71.60;68.03;;;;;;;;;;5042531;28;19913;-59
2022/08/02 12:37:44;;;;;;;67.72;64.32;;;;;;;;;;5042583;28;20469;-58
2022/08/02 12:40:31;;;;;;;70.75;67.25;;;;;;;;;;5045172;28;20165;-58
2022/08/02 12:43:01;;;;;;;72.85;69.25;;;;;;;;;;5044561;28;20021;-60
2022/08/02 12:45:30;;;;;;;76.25;72.45;;;;;;;;;;5043783;28;20187;-58
2022/08/02 12:47:58;;;;;;;69.20;65.75;;;;;;;;;;5047778;28;20028;-58
2022/08/02 12:50:25;;;;;;;71.07;67.55;;;;;;;;;;5043679;28;20032;-59
2022/08/02 12:53:08;;;;;;;63.42;60.25;;;;;;;;;;5043042;28;20632;-58
2022/08/02 12:55:37;;;;;;;66.38;63.08;;;;;;;;;;5048013;28;20478;-57
2022/08/02 12:58:04;;;;;;;68.22;64.82;;;;;;;;;;5045751;28;20033;-57
2022/08/02 13:00:37;;;;;;;65.95;62.65;;;;;;;;;;5041251;28;20429;-57
2022/08/02 13:03:03;;;;;;;69.38;65.90;;;;;;;;;;5041090;28;20040;-57
2022/08/02 13:05:29;;;;;;;59.47;56.50;;;;;;;;;;5043647;28;20079;-57
2022/08/02 13:07:55;;;;;;;66.57;63.25;;;;;;;;;;5039852;28;20036;-57
2022/08/02 13:10:22;;;;;;;48.75;46.25;;;;;;;;;;5042017;28;20043;-57
2022/08/02 13:12:48;;;;;;;62.22;59.15;;;;;;;;;;5041762;28;20119;-57
2022/08/02 13:15:14;;;;;;;52.03;49.38;;;;;;;;;;5044231;28;20448;-57
2022/08/02 13:17:40;;;;;;;51.13;48.53;;;;;;;;;;5042877;28;20360;-57
2022/08/02 13:20:06;;;;;;;59.47;56.47;;;;;;;;;;5045590;28;20022;-57
2022/08/02 13:22:32;;;;;;;56.03;53.20;;;;;;;;;;5047906;28;20366;-57
2022/08/02 13:24:57;;;;;;;52.25;49.65;;;;;;;;;;5041542;28;20028;-57
2022/08/02 13:27:24;;;;;;;46.65;44.25;;;;;;;;;;5047679;28;20053;-57
2022/08/02 13:29:50;;;;;;;42.95;40.75;;;;;;;;;;5043846;28;20076;-58
2022/08/02 13:32:16;;;;;;;48.42;45.97;;;;;;;;;;5041981;28;20069;-57
2022/08/02 13:34:41;;;;;;;39.47;37.47;;;;;;;;;;5044578;28;20102;-57
2022/08/02 13:37:06;;;;;;;43.80;41.50;;;;;;;;;;5045140;28;20116;-58
2022/08/02 13:39:32;;;;;;;42.85;40.65;;;;;;;;;;5035028;28;20099;-57
2022/08/02 13:41:57;;;;;;;47.03;44.63;;;;;;;;;;5041861;28;20021;-57
2022/08/02 13:44:22;;;;;;;50.63;48.08;;;;;;;;;;5047511;28;20082;-57
2022/08/02 13:46:48;;;;;;;43.55;41.35;;;;;;;;;;5041946;28;20041;-57
2022/08/02 13:49:13;;;;;;;42.03;39.83;;;;;;;;;;5045411;28;20029;-57
2022/08/02 13:51:39;;;;;;;38.35;36.35;;;;;;;;;;5045392;28;20025;-58
2022/08/02 13:54:04;;;;;;;39.10;37.10;;;;;;;;;;5043823;28;20088;-58
2022/08/02 13:56:30;;;;;;;36.75;34.85;;;;;;;;;;5045094;28;20297;-58
2022/08/02 13:58:57;;;;;;;43.83;41.63;;;;;;;;;;5044126;28;20029;-58
2022/08/02 14:01:24;;;;;;;42.20;40.10;;;;;;;;;;5041716;28;20037;-58
2022/08/02 14:03:49;;;;;;;36.15;34.25;;;;;;;;;;5042434;28;20029;-57
2022/08/02 14:06:14;;;;;;;38.65;36.65;;;;;;;;;;5044045;28;20340;-58
2022/08/02 14:08:40;;;;;;;48.40;45.97;;;;;;;;;;5042369;28;20506;-58
2022/08/02 14:11:05;;;;;;;44.45;42.20;;;;;;;;;;5040374;28;20484;-57
2022/08/02 14:13:31;;;;;;;34.60;32.80;;;;;;;;;;5041913;28;20025;-57
2022/08/02 14:15:58;;;;;;;34.15;32.38;;;;;;;;;;5043265;28;20060;-58
2022/08/02 14:18:24;;;;;;;34.20;32.40;;;;;;;;;;5040925;28;20025;-58
2022/08/02 14:20:50;;;;;;;35.92;34.13;;;;;;;;;;5042763;28;20182;-58
2022/08/02 14:23:15;;;;;;;37.58;35.67;;;;;;;;;;5042880;28;20017;-58
2022/08/02 14:25:41;;;;;;;36.05;34.20;;;;;;;;;;5041442;28;20433;-58
2022/08/02 14:28:06;;;;;;;38.53;36.53;;;;;;;;;;5041584;28;20047;-58
2022/08/02 14:30:33;;;;;;;26.83;25.42;;;;;;;;;;5041261;28;20044;-58
2022/08/02 14:32:58;;;;;;;31.50;29.90;;;;;;;;;;5044947;28;20161;-58